createdAt,value
2023-03-29T00:00:18.972Z,6.02
2023-03-29T00:01:36.150Z,6.05
2023-03-29T00:02:19.978Z,5.99
2023-03-29T00:03:19.234Z,5.99
2023-03-29T00:04:18.957Z,5.97
2023-03-29T00:05:18.924Z,5.97
2023-03-29T00:06:18.880Z,5.94
2023-03-29T00:07:18.872Z,5.94
2023-03-29T00:08:18.855Z,5.94
2023-03-29T00:09:18.832Z,5.95
2023-03-29T00:10:18.843Z,5.97
2023-03-29T00:11:18.812Z,5.94
2023-03-29T00:12:18.792Z,5.94
2023-03-29T00:13:18.807Z,5.92
2023-03-29T00:14:18.796Z,5.92
2023-03-29T00:15:18.777Z,5.91
2023-03-29T00:16:18.772Z,5.92
2023-03-29T00:17:18.753Z,5.91
2023-03-29T00:18:18.728Z,5.90
2023-03-29T00:19:18.713Z,5.91
2023-03-29T00:20:18.728Z,5.92
2023-03-29T00:21:18.687Z,5.92
2023-03-29T00:22:18.669Z,5.95
2023-03-29T00:23:18.667Z,5.95
2023-03-29T00:24:18.648Z,5.97
2023-03-29T00:25:18.657Z,5.99
2023-03-29T00:26:18.635Z,5.98
2023-03-29T00:27:18.613Z,5.97
2023-03-29T00:28:18.589Z,5.97
2023-03-29T00:29:18.579Z,5.97
2023-03-29T00:30:18.592Z,5.97
2023-03-29T00:31:18.623Z,5.92
2023-03-29T00:32:18.544Z,5.90
2023-03-29T00:33:18.533Z,5.90
2023-03-29T00:34:18.524Z,5.90
2023-03-29T00:35:18.528Z,5.90
2023-03-29T00:36:18.503Z,5.91
2023-03-29T00:37:18.511Z,5.92
2023-03-29T00:38:18.468Z,5.91
2023-03-29T00:39:18.453Z,5.91
2023-03-29T00:40:18.471Z,5.91
2023-03-29T00:41:18.423Z,5.91
2023-03-29T00:42:18.424Z,5.92
2023-03-29T00:43:18.408Z,5.90
2023-03-29T00:44:18.382Z,5.87
2023-03-29T00:45:25.585Z,5.81
2023-03-29T00:46:18.402Z,5.80
2023-03-29T00:47:18.352Z,5.79
2023-03-29T00:48:18.329Z,5.77
2023-03-29T00:49:18.322Z,5.73
2023-03-29T00:50:18.316Z,5.72
2023-03-29T00:51:18.328Z,5.69
2023-03-29T00:52:18.283Z,5.69
2023-03-29T00:53:18.275Z,5.65
2023-03-29T00:54:18.254Z,5.62
2023-03-29T00:55:18.253Z,5.64
2023-03-29T00:56:18.250Z,5.64
2023-03-29T00:57:18.276Z,5.64
2023-03-29T00:58:18.209Z,5.61
2023-03-29T00:59:18.214Z,5.61
2023-03-29T01:00:18.180Z,5.61
2023-03-29T01:01:18.196Z,5.61
2023-03-29T01:02:18.205Z,5.59
2023-03-29T01:03:18.212Z,5.59
2023-03-29T01:04:18.149Z,5.59
2023-03-29T01:05:18.114Z,5.61
2023-03-29T01:06:18.131Z,5.59
2023-03-29T01:07:18.263Z,5.56
2023-03-29T01:08:18.229Z,5.56
2023-03-29T01:09:18.078Z,5.55
2023-03-29T01:10:18.060Z,5.54
2023-03-29T01:11:18.059Z,5.54
2023-03-29T01:12:18.025Z,5.52
2023-03-29T01:13:18.022Z,5.49
2023-03-29T01:14:18.004Z,5.47
2023-03-29T01:15:18.017Z,5.47
2023-03-29T01:16:18.040Z,5.46
2023-03-29T01:17:17.958Z,5.46
2023-03-29T01:18:17.948Z,5.46
2023-03-29T01:19:17.939Z,5.44
2023-03-29T01:20:17.927Z,5.43
2023-03-29T01:21:17.946Z,5.43
2023-03-29T01:22:17.987Z,5.43
2023-03-29T01:23:17.890Z,5.41
2023-03-29T01:24:17.908Z,5.43
2023-03-29T01:25:17.859Z,5.43
2023-03-29T01:26:17.859Z,5.46
2023-03-29T01:27:17.832Z,5.51
2023-03-29T01:28:17.824Z,5.52
2023-03-29T01:29:17.807Z,5.49
2023-03-29T01:30:17.801Z,5.49
2023-03-29T01:31:17.824Z,5.47
2023-03-29T01:32:17.790Z,5.46
2023-03-29T01:33:17.759Z,5.43
2023-03-29T01:34:17.739Z,5.41
2023-03-29T01:35:17.732Z,5.41
2023-03-29T01:36:17.760Z,5.43
2023-03-29T01:37:17.724Z,5.41
2023-03-29T01:38:17.687Z,5.40
2023-03-29T01:39:17.677Z,5.38
2023-03-29T01:40:17.670Z,5.40
2023-03-29T01:41:17.658Z,5.40
2023-03-29T01:42:17.643Z,5.40
2023-03-29T01:43:17.628Z,5.36
2023-03-29T01:44:17.604Z,5.33
2023-03-29T01:45:17.627Z,5.29
2023-03-29T01:46:17.645Z,5.31
2023-03-29T01:47:17.606Z,5.31
2023-03-29T01:48:17.555Z,5.33
2023-03-29T01:49:17.556Z,5.36
2023-03-29T01:50:17.521Z,5.34
2023-03-29T01:51:17.515Z,5.37
2023-03-29T01:52:17.605Z,5.37
2023-03-29T01:53:17.581Z,5.37
2023-03-29T01:54:17.511Z,5.38
2023-03-29T01:55:17.476Z,5.38
2023-03-29T01:56:17.450Z,5.40
2023-03-29T01:57:17.498Z,5.41
2023-03-29T01:58:17.441Z,5.38
2023-03-29T01:59:17.440Z,5.40
2023-03-29T02:00:17.423Z,5.38
2023-03-29T02:01:17.451Z,5.37
2023-03-29T02:02:17.408Z,5.37
2023-03-29T02:03:17.523Z,5.37
2023-03-29T02:04:17.341Z,5.37
2023-03-29T02:05:17.373Z,5.40
2023-03-29T02:06:17.424Z,5.38
2023-03-29T02:07:17.406Z,5.38
2023-03-29T02:08:17.309Z,5.40
2023-03-29T02:09:17.285Z,5.38
2023-03-29T02:10:17.290Z,5.37
2023-03-29T02:11:17.414Z,5.38
2023-03-29T02:12:17.239Z,5.37
2023-03-29T02:13:17.226Z,5.36
2023-03-29T02:14:17.214Z,5.36
2023-03-29T02:15:17.210Z,5.29
2023-03-29T02:16:17.319Z,5.28
2023-03-29T02:17:17.196Z,5.25
2023-03-29T02:18:17.161Z,5.23
2023-03-29T02:19:17.176Z,5.22
2023-03-29T02:20:17.131Z,5.23
2023-03-29T02:21:17.139Z,5.25
2023-03-29T02:22:17.169Z,5.25
2023-03-29T02:23:17.106Z,5.26
2023-03-29T02:24:17.081Z,5.26
2023-03-29T02:25:17.084Z,5.25
2023-03-29T02:26:17.080Z,5.25
2023-03-29T02:27:17.072Z,5.23
2023-03-29T02:28:17.088Z,5.20
2023-03-29T02:29:17.037Z,5.18
2023-03-29T02:30:17.055Z,5.19
2023-03-29T02:31:17.062Z,5.20
2023-03-29T02:32:16.977Z,5.18
2023-03-29T02:33:17.040Z,5.19
2023-03-29T02:34:16.964Z,5.18
2023-03-29T02:35:16.960Z,5.19
2023-03-29T02:36:17.000Z,5.16
2023-03-29T02:37:16.917Z,5.15
2023-03-29T02:38:16.912Z,5.13
2023-03-29T02:39:16.899Z,5.12
2023-03-29T02:40:16.874Z,5.10
2023-03-29T02:41:16.873Z,5.08
2023-03-29T02:42:16.846Z,5.05
2023-03-29T02:43:16.862Z,5.05
2023-03-29T02:44:16.815Z,5.04
2023-03-29T02:45:16.813Z,5.04
2023-03-29T02:46:16.817Z,5.04
2023-03-29T02:47:16.786Z,5.04
2023-03-29T02:48:16.836Z,5.02
2023-03-29T02:49:16.776Z,5.01
2023-03-29T02:50:16.780Z,5.01
2023-03-29T02:51:19.364Z,5.00
2023-03-29T02:52:16.709Z,5.00
2023-03-29T02:53:16.714Z,5.01
2023-03-29T02:54:16.698Z,5.04
2023-03-29T02:55:16.687Z,5.05
2023-03-29T02:56:16.702Z,5.05
2023-03-29T02:57:16.724Z,5.04
2023-03-29T02:58:16.688Z,5.04
2023-03-29T02:59:16.647Z,5.04
2023-03-29T03:00:16.698Z,5.08
2023-03-29T03:01:16.681Z,5.08
2023-03-29T03:02:16.687Z,5.10
2023-03-29T03:03:16.690Z,5.10
2023-03-29T03:04:16.785Z,5.10
2023-03-29T03:05:16.628Z,5.12
2023-03-29T03:06:16.525Z,5.10
2023-03-29T03:07:16.515Z,5.10
2023-03-29T03:08:16.524Z,5.10
2023-03-29T03:09:16.504Z,5.10
2023-03-29T03:10:16.482Z,5.07
2023-03-29T03:11:16.474Z,5.05
2023-03-29T03:12:16.448Z,5.07
2023-03-29T03:13:16.464Z,5.08
2023-03-29T03:14:16.424Z,5.12
2023-03-29T03:15:16.435Z,5.13
2023-03-29T03:16:16.426Z,5.16
2023-03-29T03:17:16.409Z,5.18
2023-03-29T03:18:16.377Z,5.19
2023-03-29T03:19:16.486Z,5.20
2023-03-29T03:20:16.368Z,5.23
2023-03-29T03:21:16.390Z,5.23
2023-03-29T03:22:16.318Z,5.26
2023-03-29T03:23:16.426Z,5.26
2023-03-29T03:24:16.341Z,5.29
2023-03-29T03:25:16.306Z,5.29
2023-03-29T03:26:16.285Z,5.29
2023-03-29T03:27:16.330Z,5.31
2023-03-29T03:28:16.274Z,5.31
2023-03-29T03:29:16.251Z,5.31
2023-03-29T03:30:16.239Z,5.31
2023-03-29T03:31:16.231Z,5.34
2023-03-29T03:32:16.294Z,5.31
2023-03-29T03:33:16.198Z,5.33
2023-03-29T03:34:16.205Z,5.31
2023-03-29T03:35:16.214Z,5.31
2023-03-29T03:36:16.159Z,5.31
2023-03-29T03:37:16.135Z,5.31
2023-03-29T03:38:16.115Z,5.31
2023-03-29T03:39:16.125Z,5.29
2023-03-29T03:40:16.152Z,5.31
2023-03-29T03:41:16.102Z,5.31
2023-03-29T03:42:16.065Z,5.28
2023-03-29T03:43:16.102Z,5.29
2023-03-29T03:44:16.060Z,5.33
2023-03-29T03:45:16.085Z,5.36
2023-03-29T03:46:16.074Z,5.36
2023-03-29T03:47:15.990Z,5.36
2023-03-29T03:48:15.973Z,5.36
2023-03-29T03:49:15.970Z,5.36
2023-03-29T03:50:16.068Z,5.38
2023-03-29T03:51:15.952Z,5.38
2023-03-29T03:52:15.922Z,5.41
2023-03-29T03:53:15.918Z,5.41
2023-03-29T03:54:15.918Z,5.44
2023-03-29T03:55:15.888Z,5.46
2023-03-29T03:56:15.866Z,5.44
2023-03-29T03:57:15.874Z,5.46
2023-03-29T03:58:15.845Z,5.46
2023-03-29T03:59:15.859Z,5.46
2023-03-29T04:00:15.845Z,5.43
2023-03-29T04:01:15.803Z,5.46
2023-03-29T04:02:15.821Z,5.47
2023-03-29T04:03:15.983Z,5.49
2023-03-29T04:04:15.844Z,5.47
2023-03-29T04:05:15.775Z,5.47
2023-03-29T04:06:15.788Z,5.47
2023-03-29T04:07:15.752Z,5.49
2023-03-29T04:08:15.755Z,5.47
2023-03-29T04:09:15.691Z,5.51
2023-03-29T04:10:15.709Z,5.51
2023-03-29T04:11:15.670Z,5.51
2023-03-29T04:12:15.676Z,5.52
2023-03-29T04:13:15.646Z,5.52
2023-03-29T04:14:15.637Z,5.52
2023-03-29T04:15:15.647Z,5.54
2023-03-29T04:16:15.630Z,5.52
2023-03-29T04:17:15.591Z,5.51
2023-03-29T04:18:15.629Z,5.51
2023-03-29T04:19:15.561Z,5.54
2023-03-29T04:20:15.573Z,5.54
2023-03-29T04:21:15.539Z,5.54
2023-03-29T04:22:15.537Z,5.52
2023-03-29T04:23:15.510Z,5.51
2023-03-29T04:24:15.496Z,5.49
2023-03-29T04:25:15.537Z,5.49
2023-03-29T04:26:15.468Z,5.46
2023-03-29T04:27:15.457Z,5.49
2023-03-29T04:28:15.514Z,5.49
2023-03-29T04:29:15.429Z,5.54
2023-03-29T04:30:15.435Z,5.55
2023-03-29T04:31:15.471Z,5.56
2023-03-29T04:32:15.412Z,5.55
2023-03-29T04:33:15.390Z,5.55
2023-03-29T04:34:15.378Z,5.55
2023-03-29T04:35:15.395Z,5.54
2023-03-29T04:36:15.375Z,5.54
2023-03-29T04:37:15.330Z,5.54
2023-03-29T04:38:15.332Z,5.54
2023-03-29T04:39:15.313Z,5.54
2023-03-29T04:40:15.348Z,5.55
2023-03-29T04:41:15.275Z,5.54
2023-03-29T04:42:15.276Z,5.52
2023-03-29T04:43:15.248Z,5.52
2023-03-29T04:44:15.253Z,5.54
2023-03-29T04:45:15.292Z,5.55
2023-03-29T04:46:15.344Z,5.54
2023-03-29T04:47:15.202Z,5.56
2023-03-29T04:48:15.192Z,5.55
2023-03-29T04:49:15.178Z,5.56
2023-03-29T04:50:15.191Z,5.56
2023-03-29T04:51:15.274Z,5.58
2023-03-29T04:52:15.146Z,5.58
2023-03-29T04:53:15.131Z,5.56
2023-03-29T04:54:15.189Z,5.58
2023-03-29T04:55:15.116Z,5.58
2023-03-29T04:56:15.091Z,5.58
2023-03-29T04:57:15.113Z,5.59
2023-03-29T04:58:15.060Z,5.59
2023-03-29T04:59:15.044Z,5.61
2023-03-29T05:00:15.145Z,5.59
2023-03-29T05:01:15.022Z,5.59
2023-03-29T05:02:15.003Z,5.59
2023-03-29T05:03:14.994Z,5.59
2023-03-29T05:04:15.033Z,5.84
2023-03-29T05:05:14.986Z,6.38
2023-03-29T05:06:14.951Z,6.83
2023-03-29T05:07:14.935Z,7.26
2023-03-29T05:08:14.935Z,7.64
2023-03-29T05:09:14.911Z,7.90
2023-03-29T05:10:14.945Z,8.11
2023-03-29T05:11:14.884Z,8.26
2023-03-29T05:12:14.872Z,8.21
2023-03-29T05:13:14.853Z,8.02
2023-03-29T05:14:14.849Z,7.80
2023-03-29T05:15:14.884Z,7.53
2023-03-29T05:16:14.845Z,7.28
2023-03-29T05:17:14.804Z,7.01
2023-03-29T05:18:14.800Z,6.78
2023-03-29T05:19:14.777Z,6.64
2023-03-29T05:20:14.791Z,6.77
2023-03-29T05:21:14.759Z,6.65
2023-03-29T05:22:14.722Z,6.54
2023-03-29T05:23:14.725Z,6.44
2023-03-29T05:24:14.775Z,6.35
2023-03-29T05:25:14.721Z,6.28
2023-03-29T05:26:14.687Z,6.19
2023-03-29T05:27:14.907Z,6.10
2023-03-29T05:28:14.674Z,6.06
2023-03-29T05:29:14.652Z,6.01
2023-03-29T05:30:14.659Z,5.98
2023-03-29T05:31:16.823Z,5.94
2023-03-29T05:32:14.827Z,5.90
2023-03-29T05:33:14.591Z,5.84
2023-03-29T05:34:14.595Z,5.87
2023-03-29T05:35:14.606Z,5.87
2023-03-29T05:36:14.566Z,5.90
2023-03-29T05:37:14.535Z,5.88
2023-03-29T05:38:14.534Z,5.87
2023-03-29T05:39:14.516Z,5.84
2023-03-29T05:40:14.592Z,5.84
2023-03-29T05:41:14.515Z,5.83
2023-03-29T05:42:14.489Z,5.81
2023-03-29T05:43:14.453Z,5.81
2023-03-29T05:44:14.453Z,5.83
2023-03-29T05:45:14.444Z,5.84
2023-03-29T05:46:14.478Z,5.87
2023-03-29T05:47:14.413Z,5.87
2023-03-29T05:48:14.404Z,5.83
2023-03-29T05:49:14.386Z,5.84
2023-03-29T05:50:14.350Z,5.84
2023-03-29T05:51:14.377Z,5.87
2023-03-29T05:52:14.346Z,5.88
2023-03-29T05:53:14.328Z,5.90
2023-03-29T05:54:14.323Z,5.90
2023-03-29T05:55:14.306Z,5.92
2023-03-29T05:56:14.313Z,5.88
2023-03-29T05:57:14.358Z,5.84
2023-03-29T05:58:14.269Z,5.83
2023-03-29T05:59:14.251Z,5.87
2023-03-29T06:00:14.289Z,5.84
2023-03-29T06:01:14.239Z,5.87
2023-03-29T06:02:14.271Z,5.88
2023-03-29T06:03:20.932Z,5.91
2023-03-29T06:04:15.317Z,5.91
2023-03-29T06:05:14.176Z,5.92
2023-03-29T06:06:14.186Z,5.94
2023-03-29T06:07:14.141Z,5.95
2023-03-29T06:08:14.146Z,5.98
2023-03-29T06:09:14.126Z,5.98
2023-03-29T06:10:14.126Z,5.99
2023-03-29T06:11:14.114Z,5.99
2023-03-29T06:12:14.090Z,5.98
2023-03-29T06:13:14.082Z,5.97
2023-03-29T06:14:14.073Z,5.98
2023-03-29T06:15:14.046Z,5.99
2023-03-29T06:16:14.070Z,6.01
2023-03-29T06:17:14.059Z,5.99
2023-03-29T06:18:14.056Z,6.02
2023-03-29T06:19:13.984Z,6.01
2023-03-29T06:20:13.996Z,5.99
2023-03-29T06:21:14.343Z,5.99
2023-03-29T06:22:14.978Z,5.99
2023-03-29T06:23:13.938Z,6.01
2023-03-29T06:24:13.945Z,6.01
2023-03-29T06:25:13.912Z,6.05
2023-03-29T06:26:13.950Z,6.05
2023-03-29T06:27:13.890Z,6.07
2023-03-29T06:28:13.888Z,6.09
2023-03-29T06:29:13.868Z,6.10
2023-03-29T06:30:13.868Z,6.12
2023-03-29T06:31:13.872Z,6.12
2023-03-29T06:32:13.844Z,6.15
2023-03-29T06:33:13.815Z,6.15
2023-03-29T06:34:13.811Z,6.16
2023-03-29T06:35:13.827Z,6.16
2023-03-29T06:36:13.875Z,6.16
2023-03-29T06:37:13.757Z,6.16
2023-03-29T06:38:13.775Z,6.13
2023-03-29T06:39:13.733Z,6.16
2023-03-29T06:40:13.730Z,6.16
2023-03-29T06:41:13.742Z,6.16
2023-03-29T06:42:21.153Z,6.16
2023-03-29T06:43:14.691Z,6.13
2023-03-29T06:44:13.670Z,6.13
2023-03-29T06:45:13.702Z,6.13
2023-03-29T06:46:13.680Z,6.15
2023-03-29T06:47:13.710Z,6.13
2023-03-29T06:48:13.630Z,6.13
2023-03-29T06:49:13.659Z,6.15
2023-03-29T06:50:13.612Z,6.10
2023-03-29T06:51:13.606Z,6.10
2023-03-29T06:52:13.579Z,6.10
2023-03-29T06:53:13.664Z,6.10
2023-03-29T06:54:13.632Z,6.09
2023-03-29T06:55:13.528Z,6.12
2023-03-29T06:56:13.785Z,6.15
2023-03-29T06:57:13.570Z,6.16
2023-03-29T06:58:13.492Z,6.19
2023-03-29T06:59:13.477Z,6.20
2023-03-29T07:00:13.483Z,6.19
2023-03-29T07:01:13.539Z,6.20
2023-03-29T07:02:13.483Z,6.25
2023-03-29T07:03:13.528Z,6.26
2023-03-29T07:04:13.451Z,6.22
2023-03-29T07:05:13.432Z,6.22
2023-03-29T07:06:13.457Z,6.22
2023-03-29T07:07:13.457Z,6.22
2023-03-29T07:08:13.362Z,6.26
2023-03-29T07:09:13.344Z,6.22
2023-03-29T07:10:13.335Z,6.22
2023-03-29T07:11:13.331Z,6.25
2023-03-29T07:12:13.311Z,6.29
2023-03-29T07:13:13.394Z,6.29
2023-03-29T07:14:13.347Z,6.29
2023-03-29T07:15:13.292Z,6.31
2023-03-29T07:16:13.421Z,6.31
2023-03-29T07:17:13.314Z,6.32
2023-03-29T07:18:13.233Z,6.34
2023-03-29T07:19:13.212Z,6.35
2023-03-29T07:20:13.220Z,6.38
2023-03-29T07:21:13.228Z,6.39
2023-03-29T07:22:13.178Z,6.39
2023-03-29T07:23:13.179Z,6.39
2023-03-29T07:24:13.164Z,6.44
2023-03-29T07:25:13.153Z,6.43
2023-03-29T07:26:13.144Z,6.41
2023-03-29T07:27:13.109Z,6.43
2023-03-29T07:28:13.104Z,6.43
2023-03-29T07:29:13.090Z,6.44
2023-03-29T07:30:13.074Z,6.41
2023-03-29T07:31:13.065Z,6.44
2023-03-29T07:32:13.101Z,6.47
2023-03-29T07:33:13.241Z,6.49
2023-03-29T07:34:13.015Z,6.52
2023-03-29T07:35:13.011Z,6.53
2023-03-29T07:36:13.026Z,6.52
2023-03-29T07:37:13.008Z,6.53
2023-03-29T07:38:12.959Z,6.54
2023-03-29T07:39:12.954Z,6.56
2023-03-29T07:40:12.947Z,6.57
2023-03-29T07:41:12.937Z,6.59
2023-03-29T07:42:12.933Z,6.60
2023-03-29T07:43:12.911Z,6.57
2023-03-29T07:44:12.880Z,6.59
2023-03-29T07:45:12.874Z,6.54
2023-03-29T07:46:12.936Z,6.56
2023-03-29T07:47:12.866Z,6.54
2023-03-29T07:48:12.959Z,6.57
2023-03-29T07:49:12.826Z,6.62
2023-03-29T07:50:12.844Z,6.62
2023-03-29T07:51:12.799Z,6.60
2023-03-29T07:52:12.814Z,6.62
2023-03-29T07:53:12.781Z,6.65
2023-03-29T07:54:12.752Z,6.68
2023-03-29T07:55:13.081Z,6.71
2023-03-29T07:56:12.735Z,6.72
2023-03-29T07:57:12.776Z,6.74
2023-03-29T07:58:12.692Z,6.75
2023-03-29T07:59:12.703Z,6.74
2023-03-29T08:00:12.666Z,6.75
2023-03-29T08:01:15.240Z,6.75
2023-03-29T08:02:12.644Z,6.78
2023-03-29T08:03:12.724Z,6.80
2023-03-29T08:04:12.745Z,6.85
2023-03-29T08:05:12.647Z,6.87
2023-03-29T08:06:12.598Z,6.87
2023-03-29T08:07:12.726Z,6.90
2023-03-29T08:08:12.572Z,6.93
2023-03-29T08:09:12.566Z,6.96
2023-03-29T08:10:12.776Z,6.96
2023-03-29T08:11:12.657Z,7.00
2023-03-29T08:12:12.541Z,7.01
2023-03-29T08:13:12.495Z,7.04
2023-03-29T08:14:12.491Z,7.05
2023-03-29T08:15:12.474Z,7.04
2023-03-29T08:16:12.528Z,7.04
2023-03-29T08:17:12.593Z,7.07
2023-03-29T08:18:12.493Z,7.07
2023-03-29T08:19:12.441Z,7.10
2023-03-29T08:20:12.422Z,7.14
2023-03-29T08:21:12.414Z,7.15
2023-03-29T08:22:12.452Z,7.18
2023-03-29T08:23:12.394Z,7.19
2023-03-29T08:24:12.362Z,7.21
2023-03-29T08:25:12.358Z,7.22
2023-03-29T08:26:12.351Z,7.23
2023-03-29T08:27:12.348Z,7.25
2023-03-29T08:28:12.316Z,7.29
2023-03-29T08:29:12.307Z,7.32
2023-03-29T08:30:12.287Z,7.39
2023-03-29T08:31:12.335Z,7.44
2023-03-29T08:32:12.279Z,7.46
2023-03-29T08:33:12.333Z,7.48
2023-03-29T08:34:12.239Z,7.50
2023-03-29T08:35:12.218Z,7.51
2023-03-29T08:36:12.225Z,7.55
2023-03-29T08:37:12.217Z,7.62
2023-03-29T08:38:12.175Z,7.66
2023-03-29T08:39:12.179Z,7.69
2023-03-29T08:40:12.161Z,7.70
2023-03-29T08:41:12.197Z,7.75
2023-03-29T08:42:12.169Z,7.77
2023-03-29T08:43:12.131Z,7.80
2023-03-29T08:44:12.117Z,7.83
2023-03-29T08:45:12.107Z,7.87
2023-03-29T08:46:12.119Z,7.91
2023-03-29T08:47:12.097Z,7.93
2023-03-29T08:48:12.078Z,7.98
2023-03-29T08:49:12.066Z,7.96
2023-03-29T08:50:12.037Z,7.98
2023-03-29T08:51:12.029Z,7.99
2023-03-29T08:52:12.027Z,8.01
2023-03-29T08:53:12.026Z,8.03
2023-03-29T08:54:12.007Z,8.08
2023-03-29T08:55:11.961Z,8.11
2023-03-29T08:56:11.957Z,8.13
2023-03-29T08:57:12.028Z,8.16
2023-03-29T08:58:11.941Z,8.16
2023-03-29T08:59:11.927Z,8.14
2023-03-29T09:00:11.904Z,8.16
2023-03-29T09:01:11.878Z,8.16
2023-03-29T09:02:11.950Z,8.20
2023-03-29T09:03:11.964Z,8.23
2023-03-29T09:04:11.953Z,8.24
2023-03-29T09:05:11.837Z,8.27
2023-03-29T09:06:11.827Z,8.28
2023-03-29T09:07:11.881Z,8.34
2023-03-29T09:08:11.799Z,8.53
2023-03-29T09:09:11.796Z,9.08
2023-03-29T09:10:11.767Z,9.90
2023-03-29T09:11:11.766Z,10.45
2023-03-29T09:12:11.738Z,10.46
2023-03-29T09:13:11.775Z,10.42
2023-03-29T09:14:11.742Z,10.31
2023-03-29T09:15:11.716Z,10.20
2023-03-29T09:16:11.736Z,10.05
2023-03-29T09:17:11.677Z,9.94
2023-03-29T09:18:11.749Z,9.85
2023-03-29T09:19:11.659Z,9.77
2023-03-29T09:20:11.653Z,9.70
2023-03-29T09:21:11.627Z,9.59
2023-03-29T09:22:11.604Z,9.52
2023-03-29T09:23:11.616Z,9.48
2023-03-29T09:24:11.576Z,9.42
2023-03-29T09:25:11.572Z,9.34
2023-03-29T09:26:11.537Z,9.29
2023-03-29T09:27:11.540Z,9.26
2023-03-29T09:28:11.547Z,9.21
2023-03-29T09:29:11.511Z,9.21
2023-03-29T09:30:11.500Z,9.15
2023-03-29T09:31:11.497Z,9.15
2023-03-29T09:32:11.477Z,9.13
2023-03-29T09:33:11.545Z,9.12
2023-03-29T09:34:12.612Z,9.12
2023-03-29T09:35:11.638Z,9.11
2023-03-29T09:36:11.472Z,9.13
2023-03-29T09:37:11.399Z,9.15
2023-03-29T09:38:11.400Z,9.13
2023-03-29T09:39:11.387Z,9.15
2023-03-29T09:40:11.381Z,9.13
2023-03-29T09:41:11.364Z,9.16
2023-03-29T09:42:11.328Z,9.18
2023-03-29T09:43:11.337Z,9.21
2023-03-29T09:44:20.758Z,9.27
2023-03-29T09:45:12.295Z,9.29
2023-03-29T09:46:11.379Z,9.33
2023-03-29T09:47:11.265Z,9.34
2023-03-29T09:48:11.307Z,9.39
2023-03-29T09:49:11.252Z,9.40
2023-03-29T09:50:19.802Z,9.44
2023-03-29T09:51:12.225Z,9.45
2023-03-29T09:52:11.199Z,9.48
2023-03-29T09:53:11.210Z,9.48
2023-03-29T09:54:11.178Z,9.51
2023-03-29T09:55:11.166Z,9.51
2023-03-29T09:56:11.162Z,9.52
2023-03-29T09:57:11.198Z,9.54
2023-03-29T09:58:11.134Z,9.54
2023-03-29T09:59:11.110Z,9.58
2023-03-29T10:01:09.150Z,9.56
2023-03-29T10:02:09.130Z,9.58
2023-03-29T10:03:10.681Z,9.55
2023-03-29T10:04:09.120Z,9.56
2023-03-29T10:05:09.086Z,9.59
2023-03-29T10:06:09.069Z,9.59
2023-03-29T10:07:09.029Z,9.62
2023-03-29T10:08:09.047Z,9.63
2023-03-29T10:09:09.012Z,9.67
2023-03-29T10:10:09.079Z,9.66
2023-03-29T10:11:09.003Z,9.67
2023-03-29T10:12:09.010Z,9.69
2023-03-29T10:13:08.970Z,9.70
2023-03-29T10:14:08.957Z,9.73
2023-03-29T10:15:13.979Z,9.74
2023-03-29T10:16:10.102Z,9.74
2023-03-29T10:17:08.905Z,9.73
2023-03-29T10:18:08.937Z,9.74
2023-03-29T10:19:08.887Z,9.76
2023-03-29T10:20:10.100Z,9.76
2023-03-29T10:21:08.849Z,9.74
2023-03-29T10:22:08.850Z,9.74
2023-03-29T10:23:08.818Z,9.74
2023-03-29T10:24:08.837Z,9.76
2023-03-29T10:25:08.799Z,9.77
2023-03-29T10:26:08.806Z,9.80
2023-03-29T10:27:08.764Z,9.80
2023-03-29T10:28:08.775Z,9.81
2023-03-29T10:29:08.750Z,9.80
2023-03-29T10:30:08.743Z,9.81
2023-03-29T10:31:08.751Z,9.81
2023-03-29T10:32:08.752Z,9.82
2023-03-29T10:33:08.704Z,9.82
2023-03-29T10:34:08.700Z,9.84
2023-03-29T10:35:08.704Z,9.84
2023-03-29T10:36:08.671Z,9.84
2023-03-29T10:37:08.695Z,9.85
2023-03-29T10:38:08.627Z,9.84
2023-03-29T10:39:08.633Z,9.80
2023-03-29T10:40:08.626Z,9.76
2023-03-29T10:41:08.602Z,9.77
2023-03-29T10:42:08.589Z,9.76
2023-03-29T10:43:08.572Z,9.76
2023-03-29T10:44:08.569Z,9.76
2023-03-29T10:45:08.524Z,9.80
2023-03-29T10:46:08.543Z,9.81
2023-03-29T10:47:08.503Z,9.82
2023-03-29T10:48:08.514Z,9.85
2023-03-29T10:49:08.491Z,9.85
2023-03-29T10:50:08.466Z,9.87
2023-03-29T10:51:08.500Z,9.90
2023-03-29T10:52:08.531Z,9.91
2023-03-29T10:53:08.422Z,9.92
2023-03-29T10:54:08.432Z,9.94
2023-03-29T10:55:08.397Z,9.97
2023-03-29T10:56:08.384Z,9.99
2023-03-29T10:57:08.508Z,10.02
2023-03-29T10:58:08.491Z,10.06
2023-03-29T10:59:08.376Z,10.07
2023-03-29T11:00:08.334Z,10.10
2023-03-29T11:01:08.352Z,10.12
2023-03-29T11:02:08.318Z,10.13
2023-03-29T11:03:08.368Z,10.17
2023-03-29T11:04:08.393Z,10.18
2023-03-29T11:05:08.276Z,10.21
2023-03-29T11:06:08.325Z,10.27
2023-03-29T11:07:08.234Z,10.28
2023-03-29T11:08:08.217Z,10.33
2023-03-29T11:09:08.237Z,10.38
2023-03-29T11:10:08.210Z,10.42
2023-03-29T11:11:08.179Z,10.49
2023-03-29T11:12:15.607Z,10.57
2023-03-29T11:13:09.145Z,10.61
2023-03-29T11:14:08.173Z,10.67
2023-03-29T11:15:08.195Z,10.71
2023-03-29T11:16:08.200Z,10.77
2023-03-29T11:17:08.091Z,10.80
2023-03-29T11:18:08.101Z,10.86
2023-03-29T11:19:08.080Z,10.90
2023-03-29T11:20:08.076Z,10.97
2023-03-29T11:21:10.749Z,11.04
2023-03-29T11:22:08.033Z,11.12
2023-03-29T11:23:08.007Z,11.18
2023-03-29T11:24:08.002Z,11.23
2023-03-29T11:25:08.017Z,11.27
2023-03-29T11:26:07.976Z,11.34
2023-03-29T11:27:07.973Z,11.38
2023-03-29T11:28:07.956Z,11.44
2023-03-29T11:29:07.930Z,11.49
2023-03-29T11:30:07.992Z,11.55
2023-03-29T11:31:08.004Z,11.59
2023-03-29T11:32:07.906Z,11.65
2023-03-29T11:33:07.877Z,11.70
2023-03-29T11:34:07.888Z,11.70
2023-03-29T11:35:07.866Z,11.71
2023-03-29T11:36:07.884Z,11.73
2023-03-29T11:37:07.842Z,11.71
2023-03-29T11:38:07.835Z,11.73
2023-03-29T11:39:07.815Z,11.74
2023-03-29T11:40:07.862Z,11.80
2023-03-29T11:41:07.791Z,11.83
2023-03-29T11:42:07.774Z,11.89
2023-03-29T11:43:07.759Z,11.95
2023-03-29T11:44:07.756Z,11.97
2023-03-29T11:45:07.745Z,11.99
2023-03-29T11:46:07.826Z,12.02
2023-03-29T11:47:07.704Z,12.03
2023-03-29T11:48:07.739Z,12.08
2023-03-29T11:49:07.677Z,12.10
2023-03-29T11:50:07.712Z,12.11
2023-03-29T11:51:07.648Z,12.12
2023-03-29T11:52:07.683Z,12.18
2023-03-29T11:53:07.616Z,12.18
2023-03-29T11:54:07.610Z,12.20
2023-03-29T11:55:07.614Z,12.25
2023-03-29T11:56:07.576Z,12.28
2023-03-29T11:57:07.587Z,12.33
2023-03-29T11:58:07.560Z,12.36
2023-03-29T11:59:07.591Z,12.43
2023-03-29T12:00:07.609Z,12.48
2023-03-29T12:01:07.531Z,12.47
2023-03-29T12:02:07.596Z,12.48
2023-03-29T12:03:07.568Z,12.53
2023-03-29T12:04:07.564Z,12.54
2023-03-29T12:05:07.467Z,12.54
2023-03-29T12:06:07.459Z,12.53
2023-03-29T12:07:07.468Z,12.50
2023-03-29T12:08:07.431Z,12.47
2023-03-29T12:09:07.412Z,12.47
2023-03-29T12:10:07.462Z,12.45
2023-03-29T12:11:07.387Z,12.45
2023-03-29T12:12:07.368Z,12.43
2023-03-29T12:13:07.418Z,12.43
2023-03-29T12:14:07.358Z,12.44
2023-03-29T12:15:07.356Z,12.51
2023-03-29T12:16:07.352Z,12.58
2023-03-29T12:17:07.315Z,12.58
2023-03-29T12:18:07.356Z,12.62
2023-03-29T12:19:07.288Z,12.63
2023-03-29T12:20:07.270Z,12.69
2023-03-29T12:21:07.361Z,12.73
2023-03-29T12:22:07.240Z,12.75
2023-03-29T12:23:07.249Z,12.81
2023-03-29T12:24:07.247Z,12.84
2023-03-29T12:25:08.326Z,12.86
2023-03-29T12:26:07.208Z,12.90
2023-03-29T12:27:07.166Z,12.93
2023-03-29T12:28:07.169Z,13.02
2023-03-29T12:29:07.197Z,13.06
2023-03-29T12:30:07.133Z,13.08
2023-03-29T12:31:07.131Z,13.08
2023-03-29T12:32:07.175Z,13.09
2023-03-29T12:33:07.153Z,13.09
2023-03-29T12:34:07.119Z,13.06
2023-03-29T12:35:07.156Z,13.03
2023-03-29T12:36:07.152Z,12.98
2023-03-29T12:37:07.048Z,12.98
2023-03-29T12:38:07.034Z,12.99
2023-03-29T12:39:07.011Z,12.95
2023-03-29T12:40:07.130Z,12.95
2023-03-29T12:41:07.003Z,12.95
2023-03-29T12:42:06.976Z,12.94
2023-03-29T12:43:06.977Z,12.95
2023-03-29T12:44:08.976Z,12.98
2023-03-29T12:45:06.929Z,12.98
2023-03-29T12:46:06.989Z,12.94
2023-03-29T12:47:06.914Z,12.94
2023-03-29T12:48:06.970Z,12.93
2023-03-29T12:49:06.899Z,12.91
2023-03-29T12:50:06.891Z,12.88
2023-03-29T12:51:06.899Z,12.88
2023-03-29T12:52:06.839Z,12.87
2023-03-29T12:53:06.839Z,12.86
2023-03-29T12:54:06.834Z,12.88
2023-03-29T12:55:06.796Z,12.90
2023-03-29T12:56:06.828Z,12.91
2023-03-29T12:57:06.819Z,12.94
2023-03-29T12:58:06.791Z,12.99
2023-03-29T12:59:06.773Z,13.02
2023-03-29T13:00:06.785Z,13.05
2023-03-29T13:01:06.904Z,13.09
2023-03-29T13:02:06.734Z,13.13
2023-03-29T13:03:06.720Z,13.20
2023-03-29T13:04:06.689Z,13.24
2023-03-29T13:05:06.708Z,13.31
2023-03-29T13:06:06.731Z,13.39
2023-03-29T13:07:06.682Z,13.45
2023-03-29T13:08:06.641Z,13.49
2023-03-29T13:09:06.627Z,13.54
2023-03-29T13:10:06.685Z,13.55
2023-03-29T13:11:06.596Z,13.55
2023-03-29T13:12:06.621Z,13.57
2023-03-29T13:13:06.567Z,13.60
2023-03-29T13:14:06.575Z,13.57